Latest Weather Observations for Bunbury

IDW60801

Issued at 4:02 pm WST Tuesday 28 July 2015 (issued every 30 minutes, with the page automatically refreshed every 10 minutes)

About weather observations | Map of weather stations | Latest weather observations for WA | Other Formats
Station Details ID: 009965 Name: BUNBURY Lat: -33.36 Lon: 115.64 Height: 5.2 m
Data from the previous 72 hours. | See also: Recent months at Bunbury
Date/Time
WST
Temp
°C
App
Temp
°C
Dew
Point
Rel
Hum
%
Delta-T
°C
Wind Press
QNH
hPa
Press
MSL
hPa
Rain
since 9 am
mm
Dir
 
Spd
km/h
Gust
km/h
Spd
kts
Gust
kts
28/04:00pm 13.8 11.9 6.9 63 3.3 E 6 9 3 5 1015.3 1015.2 0.0
28/03:30pm 13.7 11.3 6.8 63 3.3 E 9 11 5 6 1015.0 1014.9 0.0
28/03:00pm 13.6 11.1 6.7 63 3.3 ESE 9 13 5 7 1015.2 1015.1 0.0
28/02:30pm 13.3 10.8 6.4 63 3.3 ESE 9 15 5 8 1015.4 1015.3 0.0
28/02:00pm 13.2 10.6 6.3 63 3.3 E 9 13 5 7 1015.6 1015.5 0.0
28/01:30pm 13.0 10.0 6.1 63 3.3 E 11 17 6 9 1015.9 1015.8 0.0
28/01:00pm 12.3 8.8 5.5 63 3.2 ENE 13 19 7 10 1016.3 1016.3 0.0
28/12:30pm 12.2 8.7 5.4 63 3.2 ENE 13 19 7 10 1017.1 1017.1 0.0
28/12:00pm 12.4 9.3 5.6 63 3.2 NE 11 19 6 10 1017.9 1017.9 0.0
28/11:30am 12.5 8.7 5.7 63 3.2 NE 15 24 8 13 1018.4 1018.4 0.0
28/11:00am 13.6 10.0 6.7 63 3.3 NNE 15 24 8 13 1018.7 1018.7 0.0
28/10:30am 13.6 11.1 6.7 63 3.3 NE 9 17 5 9 1019.1 1019.1 0.0
28/10:00am 13.1 10.1 6.2 63 3.3 NE 11 19 6 10 1019.2 1019.2 0.0
28/09:30am 12.6 10.3 5.8 63 3.2 ENE 7 11 4 6 1019.4 1019.4 0.0
28/09:00am 11.9 9.1 5.1 63 3.1 ENE 9 13 5 7 1019.9 1019.9 2.4
28/08:30am 11.6 8.7 4.8 63 3.1 E 9 13 5 7 1020.3 1020.3 2.4
28/08:00am 11.1 8.5 4.3 63 3.0 E 7 11 4 6 1020.5 1020.5 2.4
28/07:30am 10.8 8.2 4.0 63 3.0 ESE 7 11 4 6 1020.3 1020.3 2.2
28/07:00am 10.8 8.3 4.0 63 3.0 ESE 6 9 3 5 1020.4 1020.4 2.2
28/06:30am 10.7 9.0 4.0 63 3.0 ESE 2 4 1 2 1020.9 1020.9 2.0
28/06:00am 10.7 9.0 4.0 63 3.0 ESE 2 7 1 4 1020.7 1020.7 2.0
28/05:30am 11.1 9.1 4.3 63 3.0 S 4 6 2 3 1021.1 1021.1 1.8
28/05:00am 11.3 9.3 4.5 63 3.1 SE 4 6 2 3 1021.2 1021.2 1.4
28/04:30am 11.9 9.7 5.1 63 3.1 ENE 6 9 3 5 1021.3 1021.3 1.4
28/04:00am 12.8 10.5 5.9 63 3.2 NNE 7 13 4 7 1021.7 1021.7 0.6
28/03:30am 13.1 10.9 6.2 63 3.3 N 7 11 4 6 1021.9 1021.9 0.2
28/03:00am 13.7 11.8 6.8 63 3.3 NNE 6 11 3 6 1021.7 1021.7 0.0
28/02:30am 14.3 11.6 7.4 63 3.4 NNE 11 17 6 9 1021.8 1021.8 0.0
28/02:00am 12.9 11.2 6.0 63 3.2 NE 4 6 2 3 1021.9 1021.9 0.0
28/01:30am 13.1 11.5 6.2 63 3.3 NE 4 6 2 3 1022.4 1022.4 0.0
28/01:00am 13.6 11.5 6.7 63 3.3 NE 7 9 4 5 1022.6 1022.6 0.0
28/12:30am 13.7 11.6 6.8 63 3.3 NE 7 9 4 5 1022.7 1022.7 0.0
28/12:00am 13.6 12.1 6.7 63 3.3 NE 4 7 2 4 1023.1 1023.1 0.0
 
Date/Time
WST
Temp
°C
App
Temp
°C
Dew
Point
Rel
Hum
%
Delta-T
°C
Wind Press
QNH
hPa
Press
MSL
hPa
Rain
since 9 am
mm
Dir
 
Spd
km/h
Gust
km/h
Spd
kts
Gust
kts
27/11:30pm 13.8 11.8 6.9 63 3.3 ENE 7 13 4 7 1023.4 1023.4 0.0
27/11:00pm 13.2 10.6 6.3 63 3.3 ENE 9 13 5 7 1023.4 1023.4 0.0
27/10:30pm 11.2 9.6 4.4 63 3.1 ENE 2 4 1 2 1024.1 1024.1 0.0
27/10:00pm 11.0 9.7 4.2 63 3.0 CALM 0 0 0 0 1024.3 1024.3 0.0
27/09:30pm 12.0 10.9 5.2 63 3.1 CALM 0 2 0 1 1024.2 1024.2 0.0
27/09:00pm 12.1 10.3 5.3 63 3.1 E 4 6 2 3 1023.9 1023.9 0.0
27/08:30pm 11.8 9.9 5.0 63 3.1 E 4 6 2 3 1024.2 1024.2 0.0
27/08:00pm 11.2 9.6 4.4 63 3.0 E 2 6 1 3 1024.6 1024.6 0.0
27/07:30pm 11.4 9.1 4.6 63 3.1 E 6 9 3 5 1025.1 1025.1 0.0
27/07:00pm 10.9 9.2 4.1 63 3.0 ESE 2 4 1 2 1025.3 1025.3 0.0
27/06:30pm 11.8 10.7 5.0 63 3.1 CALM 0 2 0 1 1025.9 1025.9 0.0
27/06:00pm 13.0 11.7 6.1 63 3.2 ESE 2 7 1 4 1025.9 1025.9 0.0
27/05:30pm 13.5 12.7 6.6 63 3.3 CALM 0 0 0 0 1025.6 1025.6 0.0
27/05:00pm 15.9 15.7 8.9 63 3.6 CALM 0 0 0 0 1025.2 1025.2 0.0
27/04:30pm 16.9 16.5 9.8 63 3.7 NW 2 4 1 2 1025.1 1025.1 0.0
27/04:00pm 17.2 15.9 10.1 63 3.7 N 7 11 4 6 1025.0 1025.0 0.0
27/03:30pm 19.0 18.4 11.8 63 4.0 N 6 9 3 5 1024.9 1024.9 0.0
27/03:00pm 19.2 18.7 12.0 63 4.0 NNE 6 13 3 7 1025.2 1025.2 0.0
27/02:30pm 18.8 18.0 11.6 63 4.0 NNE 7 13 4 7 1025.4 1025.4 0.0
27/02:00pm 18.6 17.3 11.4 63 3.9 NNE 9 17 5 9 1025.6 1025.6 0.0
27/01:30pm 18.5 16.0 8.2 51 5.3 NE 11 20 6 11 1026.0 1026.0 0.0
27/01:00pm 17.9 14.9 7.9 52 5.1 NE 13 22 7 12 1026.8 1026.8 0.0
27/12:30pm 16.7 14.1 7.9 56 4.4 NE 11 15 6 8 1027.8 1027.8 0.0
27/12:00pm 15.9 13.7 7.9 59 4.0 NE 9 13 5 7 1028.5 1028.5 0.0
27/11:30am 16.1 13.8 7.3 56 4.4 NNE 9 13 5 7 1029.6 1029.6 0.0
27/11:00am 16.3 13.7 7.8 57 4.2 NE 11 17 6 9 1029.7 1029.7 0.0
27/10:30am 14.9 12.7 7.9 63 3.5 ENE 9 13 5 7 1029.6 1029.6 0.0
27/10:00am 13.8 11.2 7.8 67 2.9 E 11 17 6 9 1029.7 1029.7 0.0
27/09:30am 11.7 9.3 6.8 72 2.3 E 9 15 5 8 1030.1 1030.1 0.0
27/09:00am 10.1 7.9 6.3 77 1.8 E 7 9 4 5 1030.4 1030.4 0.0
27/08:30am 7.9 6.2 5.9 87 0.9 E 4 6 2 3 1030.5 1030.5 0.0
27/08:00am 5.5 3.5 4.3 92 0.5 E 4 6 2 3 1030.5 1030.5 0.0
27/07:30am 5.1 3.0 3.8 91 0.5 E 4 4 2 2 1030.6 1030.6 0.0
27/07:00am 5.4 3.6 3.7 89 0.7 ESE 2 4 1 2 1030.4 1030.4 0.0
27/06:30am 6.2 4.2 4.5 89 0.7 ESE 4 4 2 2 1030.3 1030.3 0.0
27/06:00am 5.3 3.2 4.1 92 0.5 E 4 4 2 2 1030.2 1030.2 0.0
27/05:30am 6.1 4.1 4.6 90 0.6 ESE 4 6 2 3 1030.0 1030.0 0.0
27/05:00am 7.1 5.2 5.1 87 0.9 ESE 4 4 2 2 1030.1 1030.1 0.0
27/04:30am 6.2 4.2 4.2 87 0.9 E 4 7 2 4 1030.2 1030.2 0.0
27/04:00am 6.8 4.9 5.0 88 0.8 E 4 6 2 3 1030.6 1030.6 0.0
27/03:30am 6.2 3.7 5.0 92 0.5 E 7 9 4 5 1030.6 1030.6 0.0
27/03:00am 6.4 5.0 5.5 94 0.4 ESE 2 4 1 2 1030.9 1030.9 0.0
27/02:30am 6.3 4.4 4.9 91 0.6 ESE 4 6 2 3 1030.8 1030.8 0.0
27/02:00am 7.4 6.1 5.9 90 0.7 E 2 6 1 3 1030.9 1030.9 0.0
27/01:30am 6.6 4.8 5.6 93 0.4 ENE 4 6 2 3 1031.0 1031.0 0.0
27/01:00am 7.3 6.4 5.9 91 0.6 CALM 0 0 0 0 1031.2 1031.2 0.0
27/12:30am 7.3 5.9 5.6 89 0.8 ENE 2 4 1 2 1031.1 1031.1 0.0
27/12:00am 7.1 4.8 5.6 90 0.7 ENE 7 7 4 4 1031.0 1031.0 0.0
 
Date/Time
WST
Temp
°C
App
Temp
°C
Dew
Point
Rel
Hum
%
Delta-T
°C
Wind Press
QNH
hPa
Press
MSL
hPa
Rain
since 9 am
mm
Dir
 
Spd
km/h
Gust
km/h
Spd
kts
Gust
kts
26/11:30pm 7.0 5.2 5.5 90 0.7 E 4 6 2 3 1031.4 1031.4 0.0
26/11:00pm 6.8 4.4 5.4 91 0.6 E 7 11 4 6 1031.6 1031.6 0.0
26/10:30pm 7.3 5.2 5.8 90 0.7 E 6 7 3 4 1031.8 1031.8 0.0
26/10:00pm 7.4 5.3 5.7 89 0.8 ESE 6 6 3 3 1031.8 1031.8 0.0
26/09:30pm 8.2 6.2 6.2 87 0.9 ESE 6 7 3 4 1031.8 1031.8 0.0
26/09:00pm 8.9 8.2 6.9 87 0.9 CALM 0 2 0 1 1031.8 1031.8 0.0
26/08:30pm 9.4 7.4 7.0 85 1.1 SSW 7 9 4 5 1031.8 1031.8 0.0
26/08:00pm 8.9 7.2 7.4 90 0.7 S 6 7 3 4 1031.7 1031.7 0.0
26/07:30pm 8.4 6.9 6.7 89 0.8 SSW 4 4 2 2 1031.6 1031.6 0.0
26/07:00pm 9.5 8.2 7.6 88 0.9 SSW 4 6 2 3 1031.0 1031.0 0.0
26/06:30pm 10.4 9.1 7.6 83 1.3 S 4 6 2 3 1030.7 1030.7 0.0
26/06:00pm 11.8 10.7 7.1 73 2.2 SSW 2 4 1 2 1030.6 1030.6 0.0
26/05:30pm 13.5 12.2 7.5 67 2.9 SW 4 6 2 3 1030.4 1030.4 0.0
26/05:00pm 14.6 12.7 7.6 63 3.4 WSW 7 9 4 5 1030.2 1030.2 0.0
26/04:30pm 15.6 13.9 7.6 59 4.0 SW 6 7 3 4 1030.0 1030.0 0.0
26/04:00pm 15.8 14.0 7.3 57 4.2 WSW 6 7 3 4 1030.0 1030.0 0.0
26/03:30pm 16.1 14.1 7.3 56 4.4 WNW 7 11 4 6 1030.2 1030.2 0.0
26/03:00pm 16.4 15.0 7.1 54 4.6 W 4 9 2 5 1030.5 1030.5 0.0
26/02:30pm 16.7 15.5 6.5 51 5.0 SSE 2 7 1 4 1030.5 1030.5 0.0
26/02:00pm 17.0 15.6 7.4 53 4.8 NNW 4 6 2 3 1030.6 1030.6 0.0
26/01:30pm 16.0 13.7 5.9 51 4.9 SE 7 13 4 7 1030.8 1030.8 0.0
26/01:00pm 15.9 13.9 7.1 56 4.3 ENE 7 13 4 7 1031.2 1031.2 0.0
26/12:30pm 15.9 13.5 7.1 56 4.3 ESE 9 17 5 9 1031.9 1031.9 0.0
26/12:00pm 15.3 12.0 6.6 56 4.2 E 13 17 7 9 1032.4 1032.4 0.0
26/11:30am 15.1 12.2 6.7 57 4.1 ENE 11 17 6 9 1032.9 1032.9 0.0
26/11:00am 14.9 11.4 7.0 59 3.8 ENE 15 19 8 10 1033.1 1033.1 0.0
26/10:30am 14.3 10.9 7.6 64 3.3 E 15 24 8 13 1033.2 1033.2 0.0
26/10:00am 13.5 10.9 7.7 68 2.8 ENE 11 17 6 9 1033.0 1033.0 0.0
26/09:30am 12.4 10.6 8.1 75 2.1 ENE 7 11 4 6 1033.1 1033.1 0.0
26/09:00am 10.7 8.7 7.0 78 1.7 E 7 11 4 6 1033.1 1033.1 0.0
26/08:30am 9.2 7.4 7.2 87 0.9 E 6 9 3 5 1032.9 1032.9 0.0
26/08:00am 7.0 5.0 6.1 94 0.4 E 6 7 3 4 1032.6 1032.6 0.0
26/07:30am 5.8 4.0 5.2 96 0.3 E 4 7 2 4 1032.2 1032.2 0.0
26/07:00am 6.0 3.8 5.4 96 0.3 E 6 7 3 4 1032.0 1032.0 0.0
26/06:30am 6.0 3.9 5.6 97 0.2 E 6 6 3 3 1031.8 1031.8 0.0
26/06:00am 5.2 3.3 4.9 98 0.1 ESE 4 9 2 5 1031.4 1031.4 0.0
26/05:30am 4.8 3.6 4.4 97 0.2 CALM 0 0 0 0 1031.1 1031.1 0.0
26/05:00am 5.9 4.9 5.6 98 0.1 CALM 0 0 0 0 1030.9 1030.9 0.0
26/04:30am 6.0 4.6 5.6 97 0.2 ESE 2 4 1 2 1030.7 1030.7 0.0
26/04:00am 6.7 5.9 6.3 97 0.2 CALM 0 0 0 0 1030.7 1030.7 0.0
26/03:30am 6.1 5.1 5.8 98 0.1 CALM 0 0 0 0 1030.8 1030.8 0.0
26/03:00am 6.0 5.0 5.6 97 0.2 CALM 0 0 0 0 1030.7 1030.7 0.0
26/02:30am 5.5 4.4 4.9 96 0.3 CALM 0 0 0 0 1030.6 1030.6 0.0
26/02:00am 6.7 5.4 6.1 96 0.3 ESE 2 4 1 2 1030.4 1030.4 0.0
26/01:30am 7.1 5.5 6.4 95 0.3 ESE 4 6 2 3 1030.4 1030.4 0.0
26/01:00am 7.7 5.9 7.0 95 0.3 ESE 6 7 3 4 1030.4 1030.4 0.0
26/12:30am 8.3 6.0 7.5 95 0.4 ESE 9 9 5 5 1030.5 1030.5 0.0
26/12:00am 8.3 6.4 7.5 95 0.4 ESE 7 9 4 5 1030.6 1030.6 0.0
 
Date/Time
WST
Temp
°C
App
Temp
°C
Dew
Point
Rel
Hum
%
Delta-T
°C
Wind Press
QNH
hPa
Press
MSL
hPa
Rain
since 9 am
mm
Dir
 
Spd
km/h
Gust
km/h
Spd
kts
Gust
kts
25/11:30pm 8.9 7.3 8.1 95 0.4 ESE 6 7 3 4 1030.8 1030.8 0.0
25/11:00pm 9.3 7.7 8.2 93 0.5 SE 6 7 3 4 1030.7 1030.7 0.0
25/10:30pm 9.2 7.6 8.1 93 0.5 SE 6 7 3 4 1030.6 1030.6 0.0
25/10:00pm 9.7 8.2 8.3 91 0.7 SE 6 7 3 4 1030.4 1030.4 0.0
25/09:30pm 10.5 9.1 8.8 89 0.8 SSE 6 7 3 4 1030.2 1030.2 0.0
25/09:00pm 10.6 9.5 8.5 87 1.0 S 4 6 2 3 1030.3 1030.3 0.0
25/08:30pm 11.3 9.8 9.0 86 1.1 SSW 7 9 4 5 1030.1 1030.1 0.0
25/08:00pm 11.9 10.3 8.9 82 1.5 S 7 11 4 6 1029.8 1029.8 0.0
25/07:30pm 12.3 10.8 9.0 80 1.7 S 7 9 4 5 1029.6 1029.6 0.0
25/07:00pm 13.1 11.8 9.2 77 2.0 SSW 6 7 3 4 1029.3 1029.3 0.0
25/06:30pm 13.9 12.6 9.3 74 2.3 SW 6 9 3 5 1029.0 1029.0 0.0
25/06:00pm 14.2 13.0 9.4 73 2.4 SSW 6 9 3 5 1028.7 1028.7 0.0
25/05:30pm 14.4 12.8 8.8 69 2.8 SW 7 9 4 5 1028.3 1028.3 0.0
25/05:00pm 14.6 13.2 9.0 69 2.8 SW 6 11 3 6 1027.9 1027.9 0.0
25/04:30pm 14.7 12.0 9.1 69 2.9 SW 13 20 7 11 1027.7 1027.7 0.0

Other Formats:

Comma delimited format used in spreadsheet applications
http://www.bom.gov.au/fwo/IDW60801/IDW60801.94604.axf

JavaScript Object Notation format (JSON) in row-major order
http://www.bom.gov.au/fwo/IDW60801/IDW60801.94604.json